createdAt,value
2022-11-16T00:00:21.470Z,97534.38
2022-11-16T00:01:26.542Z,97531.00
2022-11-16T00:02:29.191Z,97528.12
2022-11-16T00:03:33.156Z,97538.72
2022-11-16T00:04:36.087Z,97524.87
2022-11-16T00:05:38.797Z,97530.91
2022-11-16T00:06:41.429Z,97520.16
2022-11-16T00:07:44.124Z,97528.81
2022-11-16T00:09:10.194Z,97525.16
2022-11-16T00:10:13.013Z,97521.59
2022-11-16T00:11:19.205Z,97524.59
2022-11-16T00:12:21.936Z,97517.94
2022-11-16T00:13:24.550Z,97517.28
2022-11-16T00:14:30.510Z,97522.25
2022-11-16T00:15:33.264Z,97512.16
2022-11-16T00:16:36.128Z,97516.28
2022-11-16T00:17:39.332Z,97513.81
2022-11-16T00:18:42.571Z,97510.66
2022-11-16T00:19:45.379Z,97510.66
2022-11-16T00:20:47.978Z,97507.78
2022-11-16T00:21:51.344Z,97511.53
2022-11-16T00:22:53.935Z,97508.03
2022-11-16T00:23:56.746Z,97505.81
2022-11-16T00:24:59.327Z,97509.03
2022-11-16T00:26:04.984Z,97502.50
2022-11-16T00:27:07.578Z,97498.44
2022-11-16T00:28:10.490Z,97511.78
2022-11-16T00:29:21.357Z,97508.00
2022-11-16T00:30:23.882Z,97512.50
2022-11-16T00:31:26.508Z,97503.91
2022-11-16T00:32:29.813Z,97505.69
2022-11-16T00:33:33.481Z,97504.59
2022-11-16T00:34:44.788Z,97504.75
2022-11-16T00:35:47.511Z,97495.19
2022-11-16T00:36:50.913Z,97493.44
2022-11-16T00:37:53.664Z,97496.16
2022-11-16T00:38:56.376Z,97492.72
2022-11-16T00:39:59.087Z,97490.81
2022-11-16T00:41:02.010Z,97493.03
2022-11-16T00:42:04.658Z,97483.94
2022-11-16T00:43:07.343Z,97487.81
2022-11-16T00:44:11.199Z,97480.06
2022-11-16T00:45:14.058Z,97476.84
2022-11-16T00:46:16.931Z,97478.09
2022-11-16T00:47:19.626Z,97473.22
2022-11-16T00:48:22.559Z,97468.28
2022-11-16T00:49:25.223Z,97468.03
2022-11-16T00:50:27.836Z,97472.91
2022-11-16T00:51:30.831Z,97465.41
2022-11-16T00:52:33.446Z,97457.41
2022-11-16T00:53:37.019Z,97463.78
2022-11-16T00:54:39.618Z,97464.72
2022-11-16T00:55:44.576Z,97464.19
2022-11-16T00:56:47.161Z,97459.12
2022-11-16T00:57:49.934Z,97463.91
2022-11-16T00:58:52.892Z,97458.00
2022-11-16T00:59:55.589Z,97461.16
2022-11-16T01:01:04.535Z,97459.12
2022-11-16T01:02:07.329Z,97463.50
2022-11-16T01:03:10.423Z,97456.41
2022-11-16T01:04:13.223Z,97461.84
2022-11-16T01:05:15.943Z,97462.06
2022-11-16T01:06:19.257Z,97457.84
2022-11-16T01:07:22.081Z,97453.84
2022-11-16T01:08:24.775Z,97456.22
2022-11-16T01:09:27.610Z,97461.28
2022-11-16T01:10:30.497Z,97453.63
2022-11-16T01:11:51.733Z,97452.41
2022-11-16T01:12:55.611Z,97458.19
2022-11-16T01:13:58.297Z,97452.84
2022-11-16T01:15:01.448Z,97457.16
2022-11-16T01:16:04.425Z,97438.44
2022-11-16T01:17:07.304Z,97447.78
2022-11-16T01:18:09.942Z,97441.41
2022-11-16T01:19:12.961Z,97439.31
2022-11-16T01:20:29.777Z,97434.25
2022-11-16T01:21:32.659Z,97432.91
2022-11-16T01:22:35.944Z,97437.16
2022-11-16T01:23:38.688Z,97431.84
2022-11-16T01:24:41.470Z,97431.84
2022-11-16T01:25:44.162Z,97424.84
2022-11-16T01:26:46.781Z,97427.44
2022-11-16T01:27:49.590Z,97425.47
2022-11-16T01:28:53.199Z,97428.78
2022-11-16T01:29:56.039Z,97420.34
2022-11-16T01:30:58.744Z,97423.50
2022-11-16T01:32:01.644Z,97420.66
2022-11-16T01:33:04.284Z,97424.84
2022-11-16T01:34:06.954Z,97421.44
2022-11-16T01:35:15.228Z,97419.78
2022-11-16T01:36:18.159Z,97419.78
2022-11-16T01:37:20.793Z,97416.03
2022-11-16T01:38:28.455Z,97413.72
2022-11-16T01:39:32.450Z,97414.69
2022-11-16T01:40:35.160Z,97412.47
2022-11-16T01:41:39.484Z,97413.78
2022-11-16T01:42:42.391Z,97413.12
2022-11-16T01:44:05.893Z,97407.53
2022-11-16T01:45:31.602Z,97410.03
2022-11-16T01:46:34.649Z,97415.59
2022-11-16T01:47:37.402Z,97402.75
2022-11-16T01:48:40.091Z,97407.69
2022-11-16T01:50:06.459Z,97399.88
2022-11-16T01:51:09.763Z,97400.91
2022-11-16T01:52:17.319Z,97402.50
2022-11-16T01:53:20.576Z,97403.59
2022-11-16T01:54:24.243Z,97399.03
2022-11-16T01:55:29.034Z,97394.59
2022-11-16T01:56:35.209Z,97397.75
2022-11-16T01:57:42.657Z,97392.66
2022-11-16T01:58:46.274Z,97395.59
2022-11-16T01:59:52.962Z,97389.84
2022-11-16T02:00:55.747Z,97389.69
2022-11-16T02:02:03.119Z,97383.06
2022-11-16T02:03:05.873Z,97387.13
2022-11-16T02:04:12.337Z,97388.91
2022-11-16T02:05:19.517Z,97385.16
2022-11-16T02:06:28.164Z,97386.13
2022-11-16T02:07:59.495Z,97380.91
2022-11-16T02:09:38.422Z,97384.84
2022-11-16T02:11:03.948Z,97380.22
2022-11-16T02:12:45.903Z,97381.41
2022-11-16T02:14:29.029Z,97374.28
2022-11-16T02:15:50.409Z,97376.63
2022-11-16T02:17:23.939Z,97377.81
2022-11-16T02:18:59.993Z,97381.59
2022-11-16T02:20:39.611Z,97368.78
2022-11-16T02:22:09.794Z,97373.31
2022-11-16T02:23:43.623Z,97368.78
2022-11-16T02:25:03.183Z,97370.16
2022-11-16T02:26:14.804Z,97366.50
2022-11-16T02:27:34.236Z,97360.62
2022-11-16T02:28:42.823Z,97363.91
2022-11-16T02:29:50.402Z,97358.38
2022-11-16T02:30:56.360Z,97358.59
2022-11-16T02:32:20.468Z,97358.97
2022-11-16T02:33:27.825Z,97349.59
2022-11-16T02:34:54.536Z,97356.44
2022-11-16T02:36:00.958Z,97349.31
2022-11-16T02:37:07.149Z,97347.97
2022-11-16T02:38:17.440Z,97352.41
2022-11-16T02:39:24.951Z,97351.66
2022-11-16T02:40:31.989Z,97354.25
2022-11-16T02:41:39.838Z,97350.56
2022-11-16T02:42:49.061Z,97344.12
2022-11-16T02:44:02.099Z,97346.72
2022-11-16T02:45:09.207Z,97345.09
2022-11-16T02:46:18.886Z,97331.50
2022-11-16T02:47:29.306Z,97343.94
2022-11-16T02:48:37.184Z,97341.13
2022-11-16T02:49:45.406Z,97333.31
2022-11-16T02:50:52.910Z,97337.06
2022-11-16T02:51:56.625Z,97335.72
2022-11-16T02:52:59.396Z,97341.03
2022-11-16T02:54:21.805Z,97335.97
2022-11-16T02:55:26.009Z,97332.03
2022-11-16T02:56:30.166Z,97341.13
2022-11-16T02:57:38.806Z,97328.69
2022-11-16T02:58:41.560Z,97337.47
2022-11-16T02:59:52.829Z,97332.44
2022-11-16T03:01:40.485Z,97331.09
2022-11-16T03:03:20.369Z,97335.34
2022-11-16T03:04:42.329Z,97332.16
2022-11-16T03:05:51.291Z,97326.53
2022-11-16T03:06:56.758Z,97333.13
2022-11-16T03:08:32.962Z,97317.31
2022-11-16T03:09:38.412Z,97311.59
2022-11-16T03:11:03.533Z,97323.38
2022-11-16T03:12:10.207Z,97325.91
2022-11-16T03:13:17.408Z,97324.91
2022-11-16T03:14:24.090Z,97326.44
2022-11-16T03:15:27.299Z,97323.66
2022-11-16T03:17:00.172Z,97321.22
2022-11-16T03:18:06.200Z,97325.97
2022-11-16T03:19:17.455Z,97331.00
2022-11-16T03:20:28.189Z,97322.59
2022-11-16T03:21:37.877Z,97322.72
2022-11-16T03:22:47.450Z,97323.38
2022-11-16T03:23:50.929Z,97316.59
2022-11-16T03:24:53.900Z,97315.44
2022-11-16T03:25:58.490Z,97303.31
2022-11-16T03:27:21.976Z,97305.13
2022-11-16T03:28:34.619Z,97303.97
2022-11-16T03:29:52.952Z,97308.03
2022-11-16T03:31:01.221Z,97297.81
2022-11-16T03:32:29.145Z,97297.34
2022-11-16T03:33:45.938Z,97299.66
2022-11-16T03:35:00.962Z,97292.72
2022-11-16T03:36:10.890Z,97301.09
2022-11-16T03:37:14.970Z,97303.81
2022-11-16T03:38:19.289Z,97296.69
2022-11-16T03:39:28.902Z,97292.78
2022-11-16T03:40:34.592Z,97292.25
2022-11-16T03:41:42.368Z,97289.63
2022-11-16T03:42:49.822Z,97289.91
2022-11-16T03:43:55.289Z,97284.69
2022-11-16T03:44:58.535Z,97293.38
2022-11-16T03:46:01.451Z,97281.91
2022-11-16T03:47:04.768Z,97288.28
2022-11-16T03:48:08.509Z,97281.63
2022-11-16T03:49:11.249Z,97286.44
2022-11-16T03:50:13.984Z,97289.81
2022-11-16T03:51:16.694Z,97271.50
2022-11-16T03:52:19.548Z,97282.28
2022-11-16T03:53:22.235Z,97275.91
2022-11-16T03:54:25.581Z,97278.91
2022-11-16T03:55:28.447Z,97275.91
2022-11-16T03:56:31.413Z,97279.09
2022-11-16T03:57:34.263Z,97264.66
2022-11-16T03:58:37.065Z,97272.84
2022-11-16T03:59:39.770Z,97268.19
2022-11-16T04:00:42.501Z,97273.19
2022-11-16T04:01:45.572Z,97277.44
2022-11-16T04:02:48.493Z,97271.87
2022-11-16T04:03:51.208Z,97266.56
2022-11-16T04:05:12.782Z,97258.56
2022-11-16T04:06:34.331Z,97260.78
2022-11-16T04:07:55.614Z,97255.09
2022-11-16T04:09:16.930Z,97259.44
2022-11-16T04:10:38.250Z,97250.09
2022-11-16T04:11:59.408Z,97261.00
2022-11-16T04:13:21.650Z,97249.22
2022-11-16T04:14:44.492Z,97257.59
2022-11-16T04:16:25.811Z,97253.94
2022-11-16T04:17:46.932Z,97236.19
2022-11-16T04:19:08.288Z,97243.22
2022-11-16T04:20:31.542Z,97237.06
2022-11-16T04:21:57.490Z,97244.19
2022-11-16T04:23:33.821Z,97234.06
2022-11-16T04:24:40.247Z,97242.84
2022-11-16T04:25:44.574Z,97242.19
2022-11-16T04:27:11.816Z,97241.22
2022-11-16T04:28:16.856Z,97236.31
2022-11-16T04:29:20.132Z,97240.53
2022-11-16T04:30:22.886Z,97239.00
2022-11-16T04:31:44.406Z,97235.31
2022-11-16T04:33:05.652Z,97229.56
2022-11-16T04:34:27.318Z,97227.16
2022-11-16T04:35:48.657Z,97229.75
2022-11-16T04:37:10.210Z,97232.13
2022-11-16T04:38:13.392Z,97228.09
2022-11-16T04:39:16.158Z,97227.50
2022-11-16T04:40:21.287Z,97230.22
2022-11-16T04:41:42.872Z,97227.41
2022-11-16T04:42:53.988Z,97223.47
2022-11-16T04:43:58.123Z,97230.78
2022-11-16T04:45:23.693Z,97228.59
2022-11-16T04:46:45.347Z,97227.72
2022-11-16T04:47:52.149Z,97228.78
2022-11-16T04:48:54.769Z,97233.41
2022-11-16T04:49:57.760Z,97230.41
2022-11-16T04:51:00.471Z,97231.00
2022-11-16T04:52:03.418Z,97230.81
2022-11-16T04:53:07.298Z,97230.91
2022-11-16T04:54:10.032Z,97218.94
2022-11-16T04:55:13.243Z,97229.75
2022-11-16T04:56:16.600Z,97225.41
2022-11-16T04:57:19.375Z,97226.75
2022-11-16T04:58:22.124Z,97234.69
2022-11-16T04:59:25.216Z,97234.66
2022-11-16T05:00:28.581Z,97227.72
2022-11-16T05:01:49.750Z,97228.50
2022-11-16T05:02:55.705Z,97232.53
2022-11-16T05:04:02.595Z,97226.56
2022-11-16T05:05:05.754Z,97229.47
2022-11-16T05:06:08.336Z,97223.06
2022-11-16T05:07:14.048Z,97220.88
2022-11-16T05:08:16.843Z,97218.25
2022-11-16T05:09:19.581Z,97229.38
2022-11-16T05:10:22.351Z,97225.50
2022-11-16T05:11:25.088Z,97228.78
2022-11-16T05:12:28.638Z,97212.69
2022-11-16T05:13:31.282Z,97228.00
2022-11-16T05:14:34.025Z,97216.81
2022-11-16T05:15:36.877Z,97222.25
2022-11-16T05:16:40.290Z,97215.56
2022-11-16T05:17:43.195Z,97219.41
2022-11-16T05:19:05.975Z,97217.69
2022-11-16T05:20:29.237Z,97212.28
2022-11-16T05:21:32.004Z,97215.97
2022-11-16T05:22:35.665Z,97212.69
2022-11-16T05:23:57.094Z,97221.34
2022-11-16T05:25:00.384Z,97217.78
2022-11-16T05:26:03.087Z,97211.81
2022-11-16T05:27:14.438Z,97215.56
2022-11-16T05:28:17.092Z,97212.69
2022-11-16T05:29:19.738Z,97213.06
2022-11-16T05:30:33.439Z,97209.28
2022-11-16T05:31:40.346Z,97206.41
2022-11-16T05:32:43.569Z,97211.03
2022-11-16T05:33:46.337Z,97202.38
2022-11-16T05:34:49.007Z,97205.91
2022-11-16T05:35:52.057Z,97201.59
2022-11-16T05:36:55.605Z,97206.22
2022-11-16T05:37:58.210Z,97199.38
2022-11-16T05:39:00.826Z,97196.13
2022-11-16T05:40:04.504Z,97198.69
2022-11-16T05:41:07.572Z,97199.94
2022-11-16T05:42:11.001Z,97189.53
2022-11-16T05:43:13.680Z,97191.38
2022-11-16T05:44:16.871Z,97189.25
2022-11-16T05:45:21.167Z,97194.06
2022-11-16T05:46:25.224Z,97188.87
2022-11-16T05:47:28.866Z,97191.28
2022-11-16T05:48:31.642Z,97188.00
2022-11-16T05:49:34.642Z,97188.19
2022-11-16T05:50:42.334Z,97190.50
2022-11-16T05:51:46.780Z,97189.94
2022-11-16T05:52:49.583Z,97189.66
2022-11-16T05:53:52.280Z,97186.47
2022-11-16T05:54:54.900Z,97184.50
2022-11-16T05:55:57.752Z,97184.16
2022-11-16T05:57:00.565Z,97180.09
2022-11-16T05:58:03.303Z,97180.97
2022-11-16T05:59:07.832Z,97180.00
2022-11-16T06:00:12.205Z,97182.63
2022-11-16T06:01:14.973Z,97170.81
2022-11-16T06:02:17.704Z,97179.69
2022-11-16T06:03:20.515Z,97175.16
2022-11-16T06:04:24.815Z,97174.00
2022-11-16T06:05:27.623Z,97173.56
2022-11-16T06:06:30.421Z,97179.13
2022-11-16T06:07:38.989Z,97168.34
2022-11-16T06:08:41.650Z,97181.44
2022-11-16T06:09:44.662Z,97179.25
2022-11-16T06:10:47.281Z,97176.34
2022-11-16T06:11:49.906Z,97177.19
2022-11-16T06:12:52.595Z,97180.59
2022-11-16T06:13:55.285Z,97179.69
2022-11-16T06:14:57.842Z,97182.31
2022-11-16T06:16:09.065Z,97181.06
2022-11-16T06:17:14.747Z,97179.13
2022-11-16T06:18:17.439Z,97176.34
2022-11-16T06:19:20.491Z,97180.87
2022-11-16T06:20:23.119Z,97179.69
2022-11-16T06:21:25.707Z,97177.78
2022-11-16T06:22:28.283Z,97189.16
2022-11-16T06:23:30.917Z,97175.66
2022-11-16T06:24:33.715Z,97174.59
2022-11-16T06:25:39.261Z,97184.16
2022-11-16T06:26:41.947Z,97187.78
2022-11-16T06:27:45.308Z,97183.56
2022-11-16T06:28:47.977Z,97187.25
2022-11-16T06:29:50.631Z,97187.81
2022-11-16T06:30:53.298Z,97190.13
2022-11-16T06:31:56.038Z,97191.88
2022-11-16T06:32:59.097Z,97185.12
2022-11-16T06:34:01.729Z,97192.53
2022-11-16T06:35:04.882Z,97183.56
2022-11-16T06:36:08.243Z,97182.03
2022-11-16T06:37:10.818Z,97189.16
2022-11-16T06:38:18.664Z,97186.84
2022-11-16T06:39:21.965Z,97181.13
2022-11-16T06:40:25.478Z,97175.25
2022-11-16T06:41:28.170Z,97176.91
2022-11-16T06:42:30.803Z,97167.00
2022-11-16T06:43:33.636Z,97175.66
2022-11-16T06:44:36.971Z,97169.50
2022-11-16T06:45:39.752Z,97164.84
2022-11-16T06:46:42.404Z,97157.78
2022-11-16T06:47:45.085Z,97158.75
2022-11-16T06:48:47.676Z,97157.59
2022-11-16T06:49:50.415Z,97154.50
2022-11-16T06:50:53.274Z,97156.03
2022-11-16T06:51:55.926Z,97157.47
2022-11-16T06:53:01.057Z,97154.41
2022-11-16T06:54:03.767Z,97149.41
2022-11-16T06:55:07.166Z,97160.84
2022-11-16T06:56:13.907Z,97150.87
2022-11-16T06:57:16.625Z,97154.84
2022-11-16T06:58:19.307Z,97151.47
2022-11-16T06:59:21.912Z,97154.47
2022-11-16T07:00:24.673Z,97150.81
2022-11-16T07:01:27.302Z,97155.59
2022-11-16T07:02:30.074Z,97158.22
2022-11-16T07:03:32.909Z,97155.44
2022-11-16T07:04:35.556Z,97157.78
2022-11-16T07:05:42.273Z,97157.94
2022-11-16T07:06:44.832Z,97154.06
2022-11-16T07:07:48.150Z,97151.09
2022-11-16T07:08:51.109Z,97153.03
2022-11-16T07:09:57.011Z,97150.25
2022-11-16T07:11:04.392Z,97155.69
2022-11-16T07:12:07.289Z,97146.50
2022-11-16T07:13:10.020Z,97151.91
2022-11-16T07:14:12.734Z,97149.97
2022-11-16T07:15:15.482Z,97156.13
2022-11-16T07:16:18.380Z,97158.22
2022-11-16T07:17:21.157Z,97154.47
2022-11-16T07:18:23.957Z,97150.50
2022-11-16T07:19:26.700Z,97147.31
2022-11-16T07:20:29.432Z,97141.78
2022-11-16T07:21:32.518Z,97151.63
2022-11-16T07:22:35.113Z,97149.59
2022-11-16T07:23:38.259Z,97139.16
2022-11-16T07:24:40.850Z,97140.44
2022-11-16T07:25:46.946Z,97146.31
2022-11-16T07:26:49.837Z,97131.88
2022-11-16T07:27:52.496Z,97142.47
2022-11-16T07:28:56.004Z,97138.34
2022-11-16T07:29:58.796Z,97133.69
2022-11-16T07:31:06.368Z,97142.16
2022-11-16T07:32:09.087Z,97137.72
2022-11-16T07:33:11.779Z,97139.53
2022-11-16T07:34:14.361Z,97137.88
2022-11-16T07:35:17.077Z,97142.91
2022-11-16T07:36:20.282Z,97137.97
2022-11-16T07:37:23.124Z,97137.59
2022-11-16T07:38:25.767Z,97141.88
2022-11-16T07:39:29.154Z,97136.50
2022-11-16T07:40:31.779Z,97143.16
2022-11-16T07:41:34.396Z,97134.66
2022-11-16T07:42:37.181Z,97134.87
2022-11-16T07:43:40.570Z,97131.56
2022-11-16T07:44:43.166Z,97134.69
2022-11-16T07:45:45.909Z,97130.38
2022-11-16T07:46:48.926Z,97132.81
2022-11-16T07:47:53.793Z,97131.69
2022-11-16T07:48:57.628Z,97134.06
2022-11-16T07:50:00.305Z,97125.41
2022-11-16T07:51:04.987Z,97133.50
2022-11-16T07:52:11.080Z,97121.22
2022-11-16T07:53:13.793Z,97125.53
2022-11-16T07:54:16.616Z,97127.25
2022-11-16T07:55:19.329Z,97130.94
2022-11-16T07:56:22.409Z,97119.16
2022-11-16T07:57:25.327Z,97121.28
2022-11-16T07:58:29.809Z,97115.81
2022-11-16T07:59:32.591Z,97114.38
2022-11-16T08:00:39.062Z,97116.38
2022-11-16T08:01:41.702Z,97105.34
2022-11-16T08:02:44.343Z,97115.47
2022-11-16T08:03:47.044Z,97109.53
2022-11-16T08:04:50.416Z,97106.75
2022-11-16T08:06:00.412Z,97100.47
2022-11-16T08:07:03.104Z,97105.22
2022-11-16T08:08:06.261Z,97108.69
2022-11-16T08:09:09.643Z,97112.31
2022-11-16T08:10:12.848Z,97111.06
2022-11-16T08:11:15.527Z,97114.50
2022-11-16T08:12:18.232Z,97106.56
2022-11-16T08:13:20.843Z,97117.00
2022-11-16T08:14:23.332Z,97116.81
2022-11-16T08:15:26.095Z,97114.97
2022-11-16T08:16:29.433Z,97109.88
2022-11-16T08:17:32.649Z,97117.63
2022-11-16T08:18:36.643Z,97114.72
2022-11-16T08:19:40.438Z,97117.38
2022-11-16T08:20:43.257Z,97111.91
2022-11-16T08:21:46.003Z,97103.91
2022-11-16T08:22:49.962Z,97112.91
2022-11-16T08:23:57.845Z,97113.94
2022-11-16T08:25:01.157Z,97114.09
2022-11-16T08:26:13.245Z,97111.50
2022-11-16T08:27:17.737Z,97109.94
2022-11-16T08:28:20.484Z,97113.34
2022-11-16T08:29:23.284Z,97107.72
2022-11-16T08:30:26.640Z,97119.28
2022-11-16T08:31:30.121Z,97115.91
2022-11-16T08:32:32.741Z,97111.78
2022-11-16T08:33:35.436Z,97106.97
2022-11-16T08:34:38.055Z,97114.34
2022-11-16T08:35:40.699Z,97104.00
2022-11-16T08:36:43.310Z,97107.66
2022-11-16T08:37:46.779Z,97107.19
2022-11-16T08:38:51.066Z,97104.16
2022-11-16T08:39:54.624Z,97099.09
2022-11-16T08:40:57.269Z,97112.50
2022-11-16T08:42:03.054Z,97108.81
2022-11-16T08:43:05.650Z,97114.63
2022-11-16T08:44:08.391Z,97109.03
2022-11-16T08:45:11.054Z,97107.94
2022-11-16T08:46:14.679Z,97109.19
2022-11-16T08:47:17.427Z,97106.81
2022-11-16T08:48:20.124Z,97103.44
2022-11-16T08:49:23.069Z,97102.88
2022-11-16T08:50:26.383Z,97104.28
2022-11-16T08:51:29.070Z,97102.03
2022-11-16T08:52:31.594Z,97104.53
2022-11-16T08:53:34.241Z,97103.69
2022-11-16T08:54:36.868Z,97099.44
2022-11-16T08:55:39.528Z,97099.06
2022-11-16T08:56:42.188Z,97100.47
2022-11-16T08:57:45.591Z,97092.47
2022-11-16T08:58:52.524Z,97101.03
2022-11-16T08:59:58.023Z,97090.16
2022-11-16T09:01:08.217Z,97094.78
2022-11-16T09:02:11.017Z,97100.16
2022-11-16T09:03:13.545Z,97096.00
2022-11-16T09:04:16.993Z,97087.13
2022-11-16T09:05:19.601Z,97087.28
2022-11-16T09:06:24.043Z,97086.66
2022-11-16T09:07:26.894Z,97094.97
2022-11-16T09:08:29.634Z,97085.16
2022-11-16T09:09:32.444Z,97088.78
2022-11-16T09:10:35.001Z,97085.41
2022-11-16T09:11:38.023Z,97086.72
2022-11-16T09:12:40.683Z,97084.47
2022-11-16T09:13:44.839Z,97086.34
2022-11-16T09:14:47.634Z,97082.59
2022-11-16T09:15:59.072Z,97081.03
2022-11-16T09:17:01.841Z,97082.59
2022-11-16T09:18:04.496Z,97094.63
2022-11-16T09:19:07.121Z,97085.00
2022-11-16T09:20:14.035Z,97081.16
2022-11-16T09:21:21.661Z,97091.00
2022-11-16T09:22:24.471Z,97086.41
2022-11-16T09:23:27.181Z,97088.25
2022-11-16T09:24:29.776Z,97080.72
2022-11-16T09:25:32.411Z,97083.31
2022-11-16T09:26:35.143Z,97085.75
2022-11-16T09:27:38.184Z,97073.91
2022-11-16T09:28:41.291Z,97078.97
2022-11-16T09:29:44.128Z,97082.34
2022-11-16T09:30:48.826Z,97080.22
2022-11-16T09:31:51.530Z,97082.84
2022-11-16T09:32:54.192Z,97076.09
2022-11-16T09:33:59.121Z,97077.91
2022-11-16T09:35:01.888Z,97077.13
2022-11-16T09:36:07.352Z,97086.12
2022-11-16T09:37:09.952Z,97073.41
2022-11-16T09:38:17.653Z,97072.16
2022-11-16T09:39:31.979Z,97074.66
2022-11-16T09:40:38.884Z,97073.47
2022-11-16T09:42:03.847Z,97067.06
2022-11-16T09:43:29.299Z,97067.47
2022-11-16T09:45:01.468Z,97070.28
2022-11-16T09:46:21.068Z,97065.63
2022-11-16T09:47:38.767Z,97059.37
2022-11-16T09:48:41.868Z,97062.25
2022-11-16T09:49:51.689Z,97062.41
2022-11-16T09:51:01.991Z,97057.84
2022-11-16T09:52:11.674Z,97064.00
2022-11-16T09:53:39.289Z,97054.91
2022-11-16T09:54:45.335Z,97050.78
2022-11-16T09:56:10.662Z,97047.56
2022-11-16T09:57:19.472Z,97048.16
2022-11-16T09:58:31.981Z,97050.53
2022-11-16T09:59:49.074Z,97048.38
2022-11-16T10:01:00.366Z,97044.19
2022-11-16T10:02:21.597Z,97040.19
2022-11-16T10:03:25.510Z,97038.50
2022-11-16T10:04:58.018Z,97041.09
2022-11-16T10:06:05.609Z,97041.38
2022-11-16T10:07:12.519Z,97042.63
2022-11-16T10:08:43.332Z,97041.28
2022-11-16T10:09:47.714Z,97033.12
2022-11-16T10:11:27.832Z,97031.28
2022-11-16T10:12:49.265Z,97034.97
2022-11-16T10:14:03.731Z,97025.75
2022-11-16T10:15:25.067Z,97027.59
2022-11-16T10:16:56.704Z,97021.31
2022-11-16T10:18:05.483Z,97021.47
2022-11-16T10:19:29.742Z,97019.53
2022-11-16T10:20:55.004Z,97021.47
2022-11-16T10:22:23.782Z,97023.38
2022-11-16T10:23:46.690Z,97022.38
2022-11-16T10:25:07.457Z,97021.63
2022-11-16T10:26:32.306Z,97030.69
2022-11-16T10:27:44.699Z,97021.31
2022-11-16T10:29:05.366Z,97024.22
2022-11-16T10:30:09.851Z,97023.31
2022-11-16T10:31:41.424Z,97024.31
2022-11-16T10:33:10.921Z,97023.09
2022-11-16T10:34:28.756Z,97022.34
2022-11-16T10:35:40.148Z,97014.38
2022-11-16T10:36:43.015Z,97013.00
2022-11-16T10:37:49.656Z,97010.41
2022-11-16T10:38:56.093Z,97005.03
2022-11-16T10:39:59.187Z,97007.34
2022-11-16T10:41:14.219Z,97000.72
2022-11-16T10:42:23.981Z,97004.56
2022-11-16T10:43:32.719Z,96999.81
2022-11-16T10:45:02.857Z,96997.22
2022-11-16T10:46:22.548Z,96999.66
2022-11-16T10:47:34.900Z,96992.75
2022-11-16T10:48:43.356Z,96988.28
2022-11-16T10:50:01.313Z,96984.78
2022-11-16T10:51:05.754Z,96981.84
2022-11-16T10:52:08.525Z,96977.59
2022-11-16T10:53:16.340Z,96972.63
2022-11-16T10:54:18.954Z,96974.03
2022-11-16T10:55:24.739Z,96974.97
2022-11-16T10:56:40.058Z,96971.12
2022-11-16T10:57:58.073Z,96967.75
2022-11-16T10:59:12.587Z,96969.28
2022-11-16T11:00:34.948Z,96961.13
2022-11-16T11:01:44.726Z,96966.38
2022-11-16T11:02:49.055Z,96958.88
2022-11-16T11:03:51.706Z,96956.91
2022-11-16T11:05:06.347Z,96955.53
2022-11-16T11:06:11.938Z,96958.72
2022-11-16T11:07:32.164Z,96956.84
2022-11-16T11:08:34.899Z,96954.13
2022-11-16T11:09:39.586Z,96964.38
2022-11-16T11:10:42.876Z,96950.53
2022-11-16T11:12:30.943Z,96956.97
2022-11-16T11:13:35.055Z,96963.25
2022-11-16T11:14:37.956Z,96952.19
2022-11-16T11:15:44.903Z,96949.75
2022-11-16T11:16:53.181Z,96959.13
2022-11-16T11:18:17.490Z,96953.16
2022-11-16T11:19:30.279Z,96949.00
2022-11-16T11:20:39.112Z,96948.81
2022-11-16T11:21:47.669Z,96947.78
2022-11-16T11:22:58.125Z,96944.69
2022-11-16T11:24:29.780Z,96943.91
2022-11-16T11:25:34.562Z,96946.69
2022-11-16T11:26:40.333Z,96939.47
2022-11-16T11:27:43.325Z,96933.19
2022-11-16T11:28:49.836Z,96941.16
2022-11-16T11:29:55.428Z,96937.94
2022-11-16T11:31:09.686Z,96939.66
2022-11-16T11:32:23.524Z,96932.44
2022-11-16T11:33:48.076Z,96937.31
2022-11-16T11:34:53.767Z,96933.81
2022-11-16T11:36:01.110Z,96934.88
2022-11-16T11:37:12.069Z,96927.22
2022-11-16T11:38:16.300Z,96928.28
2022-11-16T11:39:18.885Z,96923.38
2022-11-16T11:40:28.739Z,96927.19
2022-11-16T11:41:40.188Z,96922.75
2022-11-16T11:42:53.235Z,96918.91
2022-11-16T11:44:15.197Z,96922.16
2022-11-16T11:45:19.661Z,96911.56
2022-11-16T11:46:50.222Z,96905.72
2022-11-16T11:48:17.316Z,96904.94
2022-11-16T11:49:30.449Z,96917.25
2022-11-16T11:50:47.708Z,96916.94
2022-11-16T11:51:52.521Z,96912.34
2022-11-16T11:53:00.670Z,96911.09
2022-11-16T11:54:05.111Z,96911.56
2022-11-16T11:55:08.862Z,96912.78
2022-11-16T11:56:12.889Z,96909.72
2022-11-16T11:57:23.439Z,96909.41
2022-11-16T11:58:35.769Z,96910.62
2022-11-16T11:59:38.602Z,96914.59
2022-11-16T12:00:53.079Z,96916.78
2022-11-16T12:02:26.596Z,96915.06
2022-11-16T12:03:44.294Z,96918.59
2022-11-16T12:05:08.482Z,96920.00
2022-11-16T12:06:23.097Z,96921.37
2022-11-16T12:07:32.021Z,96910.75
2022-11-16T12:08:53.311Z,96914.59
2022-11-16T12:10:24.201Z,96914.44
2022-11-16T12:11:42.644Z,96911.72
2022-11-16T12:13:01.920Z,96913.97
2022-11-16T12:14:10.522Z,96913.84
2022-11-16T12:15:54.688Z,96914.94
2022-11-16T12:17:12.352Z,96914.47
2022-11-16T12:18:46.464Z,96916.31
2022-11-16T12:19:59.704Z,96913.84
2022-11-16T12:21:23.110Z,96914.00
2022-11-16T12:22:47.082Z,96917.69
2022-11-16T12:24:26.584Z,96915.38
2022-11-16T12:25:50.453Z,96915.22
2022-11-16T12:27:27.276Z,96915.53
2022-11-16T12:28:51.087Z,96908.03
2022-11-16T12:30:18.346Z,96904.78
2022-11-16T12:31:39.594Z,96909.09
2022-11-16T12:32:54.360Z,96907.53
2022-11-16T12:34:11.476Z,96899.44
2022-11-16T12:35:36.250Z,96902.94
2022-11-16T12:36:53.637Z,96902.94
2022-11-16T12:38:08.928Z,96901.72
2022-11-16T12:39:35.793Z,96900.69
2022-11-16T12:40:59.182Z,96904.19
2022-11-16T12:42:25.971Z,96895.91
2022-11-16T12:43:36.316Z,96897.13
2022-11-16T12:45:02.005Z,96887.16
2022-11-16T12:46:56.960Z,96889.16
2022-11-16T12:47:59.443Z,96879.97
2022-11-16T12:49:21.371Z,96888.69
2022-11-16T12:50:45.577Z,96881.34
2022-11-16T12:52:17.465Z,96877.19
2022-11-16T12:53:26.415Z,96882.41
2022-11-16T12:55:27.182Z,96876.13
2022-11-16T12:56:48.500Z,96881.81
2022-11-16T12:58:19.119Z,96878.25
2022-11-16T12:59:39.864Z,96875.34
2022-11-16T13:00:45.571Z,96874.88
2022-11-16T13:02:18.261Z,96882.72
2022-11-16T13:03:33.875Z,96885.94
2022-11-16T13:04:52.097Z,96880.09
2022-11-16T13:06:03.810Z,96878.72
2022-11-16T13:07:19.939Z,96888.06
2022-11-16T13:08:57.467Z,96878.88
2022-11-16T13:10:29.347Z,96884.69
2022-11-16T13:11:39.444Z,96885.16
2022-11-16T13:12:44.877Z,96886.88
2022-11-16T13:13:53.726Z,96884.69
2022-11-16T13:15:00.345Z,96884.06
2022-11-16T13:16:05.721Z,96883.03
2022-11-16T13:17:10.744Z,96885.16
2022-11-16T13:18:20.748Z,96881.94
2022-11-16T13:19:24.097Z,96883.19
2022-11-16T13:20:44.682Z,96884.88
2022-11-16T13:21:55.741Z,96894.97
2022-11-16T13:23:16.434Z,96883.16
2022-11-16T13:24:40.469Z,96887.47
2022-11-16T13:25:48.696Z,96877.97
2022-11-16T13:27:07.068Z,96882.56
2022-11-16T13:28:47.716Z,96881.03
2022-11-16T13:29:57.956Z,96878.91
2022-11-16T13:31:14.010Z,96879.03